Terminal Aerodrome Forecast
Issued by NWS Charleston, WV

Current Version | Previous Version | Graphics & Text | Print | Product List | Glossary On
Versions: 1 2 3 4 5 6 7 8 9 10 11 12 13 14 15 16 17 18 19 20 21 22 23 24
711
FTUS41 KRLX 162335
TAFPKB
TAF
KPKB 162335Z 1700/1724 00000KT P6SM BKN035 OVC090
     FM170500 VRB03KT P6SM OVC030
     FM170700 15004KT P6SM OVC023
     FM170800 17005KT 2SM -SHRA OVC011
     FM171000 20009KT 5SM -SHRA OVC010
     FM171100 20009G17KT 5SM -SHRA OVC008
     FM172000 22009G17KT 6SM -SHRA OVC015
     FM172200 23008KT P6SM OVC025=

USA.gov is the U.S. government's official web portal to all federal, state and local government web resources and services.